createdAt,value
2022-12-19T00:00:37.871Z,14.43
2022-12-19T00:03:08.100Z,14.95
2022-12-19T00:05:39.102Z,14.63
2022-12-19T00:08:13.950Z,14.30
2022-12-19T00:10:56.736Z,14.77
2022-12-19T00:13:29.582Z,15.32
2022-12-19T00:16:10.723Z,14.98
2022-12-19T00:18:47.379Z,15.10
2022-12-19T00:21:24.893Z,14.40
2022-12-19T00:23:56.031Z,14.88
2022-12-19T00:26:30.112Z,15.05
2022-12-19T00:29:03.926Z,14.80
2022-12-19T00:31:38.613Z,15.68
2022-12-19T00:34:11.882Z,14.75
2022-12-19T00:36:48.257Z,15.35
2022-12-19T00:39:25.036Z,16.35
2022-12-19T00:41:59.127Z,15.43
2022-12-19T00:44:31.106Z,14.80
2022-12-19T00:47:03.123Z,14.95
2022-12-19T00:49:39.760Z,16.13
2022-12-19T00:52:14.195Z,15.65
2022-12-19T00:54:46.081Z,15.65
2022-12-19T00:57:18.732Z,16.20
2022-12-19T00:59:50.915Z,15.15
2022-12-19T01:02:25.867Z,15.60
2022-12-19T01:04:58.305Z,16.00
2022-12-19T01:07:28.478Z,15.20
2022-12-19T01:10:03.185Z,15.52
2022-12-19T01:12:51.157Z,15.32
2022-12-19T01:15:24.231Z,15.98
2022-12-19T01:17:55.362Z,16.48
2022-12-19T01:20:29.514Z,15.90
2022-12-19T01:23:04.687Z,15.55
2022-12-19T01:25:34.224Z,16.30
2022-12-19T01:28:07.692Z,15.48
2022-12-19T01:30:36.348Z,15.63
2022-12-19T01:33:07.705Z,16.63
2022-12-19T01:35:35.833Z,16.98
2022-12-19T01:38:08.453Z,16.23
2022-12-19T01:40:37.926Z,17.17
2022-12-19T01:43:13.834Z,16.67
2022-12-19T01:45:45.913Z,16.33
2022-12-19T01:48:19.801Z,16.35
2022-12-19T01:51:01.439Z,15.70
2022-12-19T01:53:48.405Z,17.73
2022-12-19T01:56:19.045Z,16.77
2022-12-19T01:58:50.794Z,17.08
2022-12-19T02:01:25.336Z,16.92
2022-12-19T02:03:55.320Z,16.63
2022-12-19T02:06:24.814Z,17.42
2022-12-19T02:08:53.272Z,17.40
2022-12-19T02:11:21.593Z,16.13
2022-12-19T02:13:51.177Z,17.25
2022-12-19T02:16:31.819Z,17.17
2022-12-19T02:19:15.803Z,16.13
2022-12-19T02:21:54.866Z,17.58
2022-12-19T02:25:11.672Z,17.45
2022-12-19T02:28:12.706Z,17.17
2022-12-19T02:30:54.771Z,16.65
2022-12-19T02:33:33.988Z,16.40
2022-12-19T02:38:41.978Z,16.88
2022-12-19T02:41:15.528Z,15.52
2022-12-19T02:43:50.718Z,17.58
2022-12-19T02:46:30.254Z,16.80
2022-12-19T02:48:59.488Z,17.15
2022-12-19T02:51:27.708Z,16.20
2022-12-19T02:53:58.117Z,18.17
2022-12-19T02:56:39.474Z,18.40
2022-12-19T02:59:19.271Z,17.20
2022-12-19T03:01:53.983Z,16.33
2022-12-19T03:04:36.950Z,17.70
2022-12-19T03:07:17.067Z,18.80
2022-12-19T03:09:51.857Z,16.88
2022-12-19T03:12:28.073Z,17.83
2022-12-19T03:14:58.576Z,16.98
2022-12-19T03:17:29.765Z,17.52
2022-12-19T03:19:58.454Z,16.98
2022-12-19T03:22:26.612Z,18.52
2022-12-19T03:24:54.865Z,17.58
2022-12-19T03:27:27.557Z,17.30
2022-12-19T03:30:01.676Z,16.83
2022-12-19T03:32:32.625Z,17.80
2022-12-19T03:35:05.811Z,17.77
2022-12-19T03:37:38.362Z,16.33
2022-12-19T03:40:12.280Z,17.15
2022-12-19T03:43:00.922Z,17.10
2022-12-19T03:45:37.192Z,17.88
2022-12-19T03:48:10.800Z,17.90
2022-12-19T03:50:46.257Z,18.05
2022-12-19T03:53:27.419Z,17.40
2022-12-19T03:56:01.262Z,16.35
2022-12-19T03:58:33.384Z,16.60
2022-12-19T04:01:04.684Z,14.98
2022-12-19T04:03:34.590Z,17.23
2022-12-19T04:06:05.601Z,17.23
2022-12-19T04:08:34.923Z,18.30
2022-12-19T04:11:06.994Z,16.92
2022-12-19T04:13:39.734Z,17.60
2022-12-19T04:16:14.475Z,17.50
2022-12-19T04:18:49.017Z,17.27
2022-12-19T04:21:24.238Z,18.08
2022-12-19T04:23:59.061Z,18.00
2022-12-19T04:26:29.196Z,17.60
2022-12-19T04:29:01.087Z,17.00
2022-12-19T04:31:32.707Z,18.13
2022-12-19T04:34:02.440Z,17.13
2022-12-19T04:36:31.095Z,17.30
2022-12-19T04:39:01.537Z,16.88
2022-12-19T04:41:29.620Z,17.58
2022-12-19T04:43:59.864Z,16.42
2022-12-19T04:46:28.151Z,17.60
2022-12-19T04:48:56.299Z,16.42
2022-12-19T04:51:25.949Z,17.23
2022-12-19T04:53:54.106Z,17.55
2022-12-19T04:56:22.459Z,16.52
2022-12-19T04:58:50.641Z,17.45
2022-12-19T05:01:18.826Z,18.08
2022-12-19T05:03:52.743Z,17.90
2022-12-19T05:06:23.170Z,17.70
2022-12-19T05:08:53.034Z,18.05
2022-12-19T05:11:21.222Z,18.55
2022-12-19T05:13:50.125Z,18.55
2022-12-19T05:16:18.804Z,18.10
2022-12-19T05:18:47.084Z,18.02
2022-12-19T05:21:15.360Z,16.23
2022-12-19T05:23:43.458Z,17.33
2022-12-19T05:26:13.644Z,19.15
2022-12-19T05:28:44.344Z,17.95
2022-12-19T05:31:15.007Z,18.05
2022-12-19T05:33:44.329Z,17.88
2022-12-19T05:36:13.867Z,17.85
2022-12-19T05:38:42.399Z,18.27
2022-12-19T05:41:14.201Z,18.30
2022-12-19T05:43:43.515Z,17.98
2022-12-19T05:46:12.185Z,19.35
2022-12-19T05:48:40.572Z,17.50
2022-12-19T05:51:08.926Z,18.80
2022-12-19T05:53:37.321Z,18.48
2022-12-19T05:56:08.588Z,19.20
2022-12-19T05:58:42.198Z,18.67
2022-12-19T06:01:12.845Z,19.10
2022-12-19T06:03:44.120Z,17.95
2022-12-19T06:06:16.458Z,18.92
2022-12-19T06:08:44.710Z,19.05
2022-12-19T06:11:14.200Z,18.85
2022-12-19T06:13:43.837Z,19.08
2022-12-19T06:16:16.614Z,18.35
2022-12-19T06:18:46.052Z,17.85
2022-12-19T06:21:16.138Z,19.70
2022-12-19T06:23:44.972Z,18.35
2022-12-19T06:26:19.406Z,19.45
2022-12-19T06:28:50.842Z,19.35
2022-12-19T06:31:20.508Z,18.15
2022-12-19T06:33:48.943Z,18.77
2022-12-19T06:36:21.597Z,18.90
2022-12-19T06:38:50.550Z,18.30
2022-12-19T06:41:37.340Z,18.30
2022-12-19T06:44:09.079Z,18.13
2022-12-19T06:46:38.447Z,17.65
2022-12-19T06:49:07.100Z,19.08
2022-12-19T06:51:35.374Z,18.30
2022-12-19T06:54:03.624Z,19.10
2022-12-19T06:56:35.861Z,19.20
2022-12-19T06:59:04.173Z,18.65
2022-12-19T07:01:48.226Z,18.08
2022-12-19T07:04:20.646Z,18.33
2022-12-19T07:06:50.472Z,19.05
2022-12-19T07:09:20.469Z,19.40
2022-12-19T07:11:49.987Z,19.65
2022-12-19T07:14:19.541Z,19.08
2022-12-19T07:16:52.296Z,19.45
2022-12-19T07:19:21.161Z,17.83
2022-12-19T07:21:49.896Z,20.52
2022-12-19T07:24:18.252Z,18.52
2022-12-19T07:26:46.945Z,19.73
2022-12-19T07:29:15.497Z,20.05
2022-12-19T07:31:45.968Z,20.98
2022-12-19T07:34:15.723Z,20.80
2022-12-19T07:36:44.180Z,20.30
2022-12-19T07:39:15.267Z,20.45
2022-12-19T07:41:43.580Z,19.63
2022-12-19T07:44:13.522Z,20.48
2022-12-19T07:46:41.650Z,19.05
2022-12-19T07:49:10.146Z,19.95
2022-12-19T07:51:39.724Z,19.98
2022-12-19T07:54:07.875Z,20.48
2022-12-19T07:56:36.105Z,19.98
2022-12-19T07:59:04.474Z,19.17
2022-12-19T08:01:32.921Z,19.30
2022-12-19T08:04:03.301Z,20.05
2022-12-19T08:06:34.223Z,20.88
2022-12-19T08:09:07.222Z,19.58
2022-12-19T08:11:35.543Z,20.52
2022-12-19T08:14:03.680Z,19.70
2022-12-19T08:16:40.201Z,19.80
2022-12-19T08:19:17.843Z,20.63
2022-12-19T08:21:46.063Z,20.67
2022-12-19T08:24:15.977Z,20.05
2022-12-19T08:26:47.678Z,19.73
2022-12-19T08:29:16.166Z,19.90
2022-12-19T08:31:46.850Z,19.35
2022-12-19T08:34:15.172Z,20.30
2022-12-19T08:36:43.681Z,20.65
2022-12-19T08:39:12.008Z,19.67
2022-12-19T08:41:41.535Z,21.15
2022-12-19T08:44:13.071Z,19.63
2022-12-19T08:46:45.072Z,20.58
2022-12-19T08:49:19.673Z,20.10
2022-12-19T08:51:48.114Z,20.08
2022-12-19T08:54:16.325Z,21.00
2022-12-19T08:56:46.811Z,20.08
2022-12-19T08:59:20.427Z,20.75
2022-12-19T09:02:02.641Z,20.08
2022-12-19T09:05:15.352Z,21.17
2022-12-19T09:07:19.775Z,20.65
2022-12-19T09:09:48.036Z,20.48
2022-12-19T09:12:18.054Z,19.63
2022-12-19T09:14:51.835Z,21.38
2022-12-19T09:17:20.909Z,21.02
2022-12-19T09:19:51.105Z,20.48
2022-12-19T09:22:19.338Z,21.15
2022-12-19T09:24:47.598Z,20.20
2022-12-19T09:27:17.711Z,20.10
2022-12-19T09:29:46.025Z,20.58
2022-12-19T09:32:14.177Z,20.80
2022-12-19T09:34:42.260Z,21.23
2022-12-19T09:37:16.882Z,21.38
2022-12-19T09:39:47.161Z,21.08
2022-12-19T09:42:50.040Z,21.10
2022-12-19T09:45:31.799Z,20.60
2022-12-19T09:48:02.050Z,20.02
2022-12-19T09:50:43.789Z,20.58
2022-12-19T09:53:19.909Z,20.48
2022-12-19T09:55:49.010Z,20.50
2022-12-19T09:58:29.073Z,20.75
2022-12-19T10:01:00.585Z,20.63
2022-12-19T10:03:39.232Z,21.17
2022-12-19T10:07:12.594Z,19.85
2022-12-19T10:11:04.736Z,20.40
2022-12-19T10:12:44.875Z,21.48
2022-12-19T10:15:07.275Z,21.27
2022-12-19T10:17:50.798Z,21.73
2022-12-19T10:20:26.245Z,21.58
2022-12-19T10:23:06.780Z,21.08
2022-12-19T10:25:46.615Z,23.05
2022-12-19T10:28:30.806Z,21.58
2022-12-19T10:31:20.978Z,20.52
2022-12-19T10:33:56.976Z,22.00
2022-12-19T10:36:48.667Z,20.52
2022-12-19T10:39:21.871Z,22.15
2022-12-19T10:41:55.400Z,21.95
2022-12-19T10:44:25.751Z,21.65
2022-12-19T10:46:55.661Z,22.13
2022-12-19T10:49:26.629Z,20.95
2022-12-19T10:51:59.921Z,22.33
2022-12-19T10:54:39.381Z,21.48
2022-12-19T10:57:24.451Z,22.00
2022-12-19T10:59:57.362Z,19.98
2022-12-19T11:02:41.534Z,20.92
2022-12-19T11:05:24.665Z,20.65
2022-12-19T11:08:04.330Z,20.90
2022-12-19T11:11:55.152Z,20.25
2022-12-19T11:18:22.071Z,20.02
2022-12-19T11:22:04.945Z,19.83
2022-12-19T11:29:31.807Z,20.58
2022-12-19T11:29:36.340Z,20.10
2022-12-19T11:29:44.576Z,19.40
2022-12-19T11:30:45.319Z,20.63
2022-12-19T11:34:05.220Z,19.02
2022-12-19T11:36:40.087Z,19.80
2022-12-19T11:39:19.647Z,20.02
2022-12-19T11:41:59.144Z,19.30
2022-12-19T11:44:31.373Z,19.73
2022-12-19T11:47:07.059Z,20.13
2022-12-19T11:49:40.400Z,19.05
2022-12-19T11:53:02.179Z,19.27
2022-12-19T11:55:21.205Z,20.23
2022-12-19T11:57:49.876Z,20.42
2022-12-19T12:00:21.446Z,19.63
2022-12-19T12:03:23.741Z,20.70
2022-12-19T12:05:56.409Z,19.30
2022-12-19T12:11:15.566Z,19.42
2022-12-19T12:19:13.728Z,18.98
2022-12-19T12:22:33.846Z,19.92
2022-12-19T12:31:10.769Z,18.75
2022-12-19T12:31:15.934Z,19.65
2022-12-19T12:31:31.852Z,18.10
2022-12-19T12:31:52.739Z,19.02
2022-12-19T12:31:55.169Z,17.60
2022-12-19T12:35:32.686Z,18.55
2022-12-19T12:42:00.757Z,17.95
2022-12-19T12:44:33.465Z,18.13
2022-12-19T12:47:07.852Z,17.30
2022-12-19T12:49:41.032Z,17.75
2022-12-19T12:52:16.473Z,17.23
2022-12-19T12:54:48.565Z,17.55
2022-12-19T12:57:20.844Z,17.83
2022-12-19T13:00:17.708Z,18.40
2022-12-19T13:02:51.348Z,18.38
2022-12-19T13:05:42.092Z,18.77
2022-12-19T13:08:38.417Z,17.25
2022-12-19T13:11:12.613Z,17.02
2022-12-19T13:13:55.636Z,16.65
2022-12-19T13:16:59.551Z,16.52
2022-12-19T13:19:29.471Z,16.08
2022-12-19T13:22:18.156Z,16.65
2022-12-19T13:24:48.103Z,16.02
2022-12-19T13:27:38.641Z,17.45
2022-12-19T13:30:20.936Z,16.42
2022-12-19T13:33:11.239Z,17.13
2022-12-19T13:39:47.041Z,17.02
2022-12-19T13:40:02.344Z,16.58
2022-12-19T13:41:47.746Z,16.52
2022-12-19T13:44:20.754Z,16.88
2022-12-19T13:46:49.150Z,16.48
2022-12-19T13:49:28.813Z,16.63
2022-12-19T13:51:59.941Z,17.25
2022-12-19T13:54:32.452Z,16.20
2022-12-19T13:57:08.088Z,15.57
2022-12-19T13:59:54.396Z,16.27
2022-12-19T14:02:43.722Z,16.50
2022-12-19T14:05:29.716Z,16.52
2022-12-19T14:08:20.703Z,16.77
2022-12-19T14:11:27.639Z,16.58
2022-12-19T14:14:10.712Z,16.17
2022-12-19T14:16:45.681Z,16.88
2022-12-19T14:19:22.242Z,16.05
2022-12-19T14:22:04.511Z,15.85
2022-12-19T14:24:40.492Z,17.27
2022-12-19T14:28:20.040Z,16.80
2022-12-19T14:30:27.401Z,16.77
2022-12-19T14:33:44.911Z,16.38
2022-12-19T14:36:08.364Z,17.15
2022-12-19T14:39:19.764Z,16.98
2022-12-19T14:42:01.306Z,17.10
2022-12-19T14:51:51.446Z,15.60
2022-12-19T14:52:35.167Z,16.00
2022-12-19T14:54:35.866Z,17.05
2022-12-19T14:54:37.843Z,16.42
2022-12-19T14:59:03.028Z,17.00
2022-12-19T15:01:34.416Z,17.40
2022-12-19T15:04:52.890Z,16.40
2022-12-19T15:07:07.542Z,16.70
2022-12-19T15:11:07.923Z,16.23
2022-12-19T15:14:52.404Z,16.67
2022-12-19T15:15:59.146Z,16.95
2022-12-19T15:18:38.133Z,16.35
2022-12-19T15:21:09.065Z,17.02
2022-12-19T15:23:37.283Z,16.45
2022-12-19T15:26:08.584Z,17.08
2022-12-19T15:28:43.264Z,16.65
2022-12-19T15:31:26.369Z,16.98
2022-12-19T15:36:43.244Z,16.13
2022-12-19T15:39:11.399Z,15.95
2022-12-19T15:41:39.474Z,16.42
2022-12-19T15:44:15.485Z,17.27
2022-12-19T15:46:48.616Z,17.63
2022-12-19T15:49:21.440Z,16.83
2022-12-19T15:51:50.771Z,16.40
2022-12-19T15:57:07.277Z,17.35
2022-12-19T15:59:43.049Z,17.27
2022-12-19T16:02:18.416Z,16.15
2022-12-19T16:04:48.759Z,18.38
2022-12-19T16:07:18.806Z,18.60
2022-12-19T16:09:46.973Z,18.60
2022-12-19T16:12:17.456Z,17.38
2022-12-19T16:14:48.661Z,17.10
2022-12-19T16:17:25.378Z,16.92
2022-12-19T16:19:53.751Z,17.50
2022-12-19T16:22:24.122Z,16.50
2022-12-19T16:24:53.706Z,16.65
2022-12-19T16:27:26.559Z,16.70
2022-12-19T16:29:56.924Z,17.33
2022-12-19T16:32:25.501Z,17.50
2022-12-19T16:34:54.314Z,18.17
2022-12-19T16:37:28.508Z,17.70
2022-12-19T16:42:28.312Z,18.35
2022-12-19T16:44:57.941Z,18.23
2022-12-19T16:47:26.136Z,18.20
2022-12-19T16:49:54.365Z,17.95
2022-12-19T16:52:22.508Z,17.50
2022-12-19T16:54:51.112Z,18.60
2022-12-19T16:57:21.512Z,16.92
2022-12-19T16:59:52.165Z,16.70
2022-12-19T17:02:41.534Z,17.02
2022-12-19T17:05:20.497Z,18.35
2022-12-19T17:07:52.135Z,17.35
2022-12-19T17:10:26.494Z,16.80
2022-12-19T17:12:55.557Z,16.80
2022-12-19T17:15:29.774Z,16.35
2022-12-19T17:18:01.894Z,17.60
2022-12-19T17:20:36.489Z,17.08
2022-12-19T17:23:10.176Z,17.13
2022-12-19T17:25:38.608Z,16.95
2022-12-19T17:28:06.786Z,16.92
2022-12-19T17:30:35.830Z,17.42
2022-12-19T17:33:06.314Z,17.33
2022-12-19T17:35:37.144Z,17.40
2022-12-19T17:38:06.472Z,17.50
2022-12-19T17:40:35.356Z,17.95
2022-12-19T17:43:03.607Z,17.40
2022-12-19T17:45:33.664Z,18.02
2022-12-19T17:48:04.062Z,18.23
2022-12-19T17:50:38.831Z,17.27
2022-12-19T17:53:07.500Z,17.17
2022-12-19T17:55:35.585Z,16.95
2022-12-19T17:58:03.636Z,16.80
2022-12-19T18:00:34.095Z,16.55
2022-12-19T18:03:14.486Z,17.83
2022-12-19T18:05:44.964Z,17.15
2022-12-19T18:08:24.330Z,18.17
2022-12-19T18:10:53.156Z,17.92
2022-12-19T18:13:21.445Z,16.33
2022-12-19T18:15:49.873Z,18.05
2022-12-19T18:18:23.656Z,17.02
2022-12-19T18:20:53.639Z,17.15
2022-12-19T18:23:23.758Z,17.98
2022-12-19T18:25:57.515Z,17.15
2022-12-19T18:28:29.622Z,17.20
2022-12-19T18:31:01.423Z,17.17
2022-12-19T18:33:34.552Z,17.08
2022-12-19T18:36:04.354Z,17.40
2022-12-19T18:38:32.777Z,16.98
2022-12-19T18:41:01.198Z,17.05
2022-12-19T18:43:31.038Z,17.17
2022-12-19T18:45:59.309Z,17.73
2022-12-19T18:48:29.778Z,17.73
2022-12-19T18:51:03.699Z,17.35
2022-12-19T18:53:35.520Z,18.20
2022-12-19T18:56:05.868Z,21.23
2022-12-19T18:58:34.944Z,17.02
2022-12-19T19:01:04.660Z,23.13
2022-12-19T19:03:34.913Z,22.23
2022-12-19T19:06:14.857Z,18.10
2022-12-19T19:11:25.143Z,17.27
2022-12-19T19:13:55.449Z,17.13
2022-12-19T19:16:25.950Z,17.17
2022-12-19T19:18:55.995Z,18.05
2022-12-19T19:21:28.459Z,21.95
2022-12-19T19:24:01.088Z,18.77
2022-12-19T19:26:29.332Z,19.08
2022-12-19T19:29:00.281Z,18.42
2022-12-19T19:31:30.541Z,18.73
2022-12-19T19:34:02.137Z,18.52
2022-12-19T19:36:35.892Z,18.70
2022-12-19T19:39:05.586Z,18.17
2022-12-19T19:41:34.394Z,18.45
2022-12-19T19:44:02.943Z,19.45
2022-12-19T19:46:32.447Z,18.75
2022-12-19T19:49:01.146Z,19.08
2022-12-19T19:51:29.590Z,22.85
2022-12-19T19:53:59.404Z,23.17
2022-12-19T19:56:27.323Z,23.10
2022-12-19T19:59:22.345Z,18.08
2022-12-19T20:01:54.265Z,17.92
2022-12-19T20:04:26.200Z,18.27
2022-12-19T20:06:57.005Z,17.75
2022-12-19T20:09:28.926Z,17.75
2022-12-19T20:11:57.522Z,18.00
2022-12-19T20:14:26.533Z,18.50
2022-12-19T20:16:55.020Z,18.52
2022-12-19T20:19:23.939Z,19.00
2022-12-19T20:21:52.136Z,19.05
2022-12-19T20:24:22.924Z,18.60
2022-12-19T20:26:52.412Z,17.45
2022-12-19T20:29:23.203Z,18.45
2022-12-19T20:31:52.100Z,18.30
2022-12-19T20:34:20.916Z,18.38
2022-12-19T20:36:49.089Z,17.88
2022-12-19T20:39:21.855Z,19.17
2022-12-19T20:41:52.386Z,18.40
2022-12-19T20:44:24.448Z,18.88
2022-12-19T20:46:53.099Z,17.60
2022-12-19T20:49:21.513Z,18.02
2022-12-19T20:51:49.611Z,18.17
2022-12-19T20:54:18.310Z,18.08
2022-12-19T20:56:46.796Z,18.13
2022-12-19T20:59:16.857Z,17.65
2022-12-19T21:01:45.385Z,17.92
2022-12-19T21:04:13.675Z,18.13
2022-12-19T21:06:42.034Z,18.73
2022-12-19T21:09:11.205Z,18.27
2022-12-19T21:11:39.637Z,17.35
2022-12-19T21:14:07.964Z,18.25
2022-12-19T21:16:37.531Z,17.63
2022-12-19T21:19:06.132Z,17.17
2022-12-19T21:21:34.291Z,17.70
2022-12-19T21:24:02.863Z,18.33
2022-12-19T21:26:31.022Z,18.13
2022-12-19T21:29:01.114Z,18.33
2022-12-19T21:31:31.098Z,18.40
2022-12-19T21:34:02.549Z,17.40
2022-12-19T21:36:32.201Z,16.83
2022-12-19T21:39:01.776Z,17.00
2022-12-19T21:41:30.459Z,17.20
2022-12-19T21:44:01.443Z,17.67
2022-12-19T21:46:32.963Z,17.45
2022-12-19T21:49:03.926Z,18.73
2022-12-19T21:51:33.295Z,16.90
2022-12-19T21:54:03.503Z,18.08
2022-12-19T21:56:34.164Z,17.77
2022-12-19T21:59:03.787Z,18.02
2022-12-19T22:01:32.488Z,16.92
2022-12-19T22:04:03.172Z,18.02
2022-12-19T22:06:32.959Z,17.58
2022-12-19T22:09:01.384Z,18.52
2022-12-19T22:11:30.654Z,16.83
2022-12-19T22:14:01.453Z,17.52
2022-12-19T22:16:30.297Z,17.98
2022-12-19T22:18:59.211Z,18.50
2022-12-19T22:21:29.201Z,17.30
2022-12-19T22:23:58.215Z,18.10
2022-12-19T22:26:27.313Z,18.13
2022-12-19T22:28:58.446Z,16.88
2022-12-19T22:31:28.930Z,17.60
2022-12-19T22:33:59.086Z,17.45
2022-12-19T22:36:30.107Z,16.55
2022-12-19T22:38:59.454Z,17.38
2022-12-19T22:41:31.579Z,16.83
2022-12-19T22:44:03.555Z,17.60
2022-12-19T22:46:33.527Z,17.73
2022-12-19T22:49:04.112Z,17.88
2022-12-19T22:51:35.447Z,17.15
2022-12-19T22:54:07.059Z,17.38
2022-12-19T22:56:36.420Z,18.13
2022-12-19T22:59:07.004Z,17.45
2022-12-19T23:01:37.937Z,17.52
2022-12-19T23:04:09.445Z,17.35
2022-12-19T23:06:39.489Z,17.40
2022-12-19T23:09:09.273Z,16.30
2022-12-19T23:11:40.993Z,16.88
2022-12-19T23:14:12.408Z,17.15
2022-12-19T23:16:40.904Z,16.90
2022-12-19T23:19:10.479Z,16.70
2022-12-19T23:21:40.237Z,17.33
2022-12-19T23:24:10.516Z,17.05
2022-12-19T23:26:39.616Z,15.95
2022-12-19T23:29:09.484Z,16.70
2022-12-19T23:31:42.786Z,15.73
2022-12-19T23:34:11.419Z,16.20
2022-12-19T23:39:29.113Z,15.73
2022-12-19T23:41:59.816Z,15.43
2022-12-19T23:44:28.531Z,16.75
2022-12-19T23:47:02.921Z,16.77
2022-12-19T23:49:31.481Z,15.82
2022-12-19T23:52:01.081Z,17.40
2022-12-19T23:54:29.279Z,16.92
2022-12-19T23:56:59.734Z,16.73
2022-12-19T23:59:28.121Z,16.05
